Celebrity Infinity — 9HJD9 — position and weather

sailwx.info

Track history (hours):
 
Tides and Currents Weather Stations Pressure Air Temp Water Temp Dewpoint Dewpoint Depression Visibility Wind Speed Wind Dir Waves Ship Positions

Celebrity Infinity

Last reported at 2018-Sep-24 20:30 UTC. Time now 2018-Sep-24 21:01 UTC.
Position N 26°06' W 080°07'.

Length 294 m; draft 8.2 m.

Type: Passenger vessel. MMSI: 249048000.

Date/timePositionNaut miles runAvg speedWind from/ knotsBaromVisibWave heightAir tempDewpointWater temp
2018-Sep-24 20:30N 26°06' W 080°07'1 1.4
2018-Sep-24 20:03N 26°05' W 080°07'0 0.0
2018-Sep-24 20:00N 26°05' W 080°07'0 0.0
2018-Sep-24 19:29N 26°05' W 080°07'0 0.0
2018-Sep-24 18:55N 26°05' W 080°07'0 0.0
2018-Sep-24 18:28N 26°05' W 080°07'0 0.0
2018-Sep-24 18:01N 26°05' W 080°07'5200.6
2018-Sep-24 18:00N 26°00' W 080°06'5221.6 060 / 51012.0 5.4 33.0 30.0
2018-Sep-24 17:58N 26°05' W 080°07'0 0.0
2018-Sep-24 17:28N 26°05' W 080°07'0 0.0
2018-Sep-24 16:55N 26°05' W 080°07'0 0.0
2018-Sep-24 16:30N 26°05' W 080°07'0 0.0
2018-Sep-24 16:03N 26°05' W 080°07'0 0.0
2018-Sep-24 16:00N 26°05' W 080°07'0 0.0
2018-Sep-24 15:30N 26°05' W 080°07'0 0.0
2018-Sep-24 14:57N 26°05' W 080°07'0 0.0
2018-Sep-24 14:24N 26°05' W 080°07'0 0.0
2018-Sep-24 13:59N 26°05' W 080°07'0 0.0
2018-Sep-24 13:29N 26°05' W 080°07'0 0.0
2018-Sep-24 12:59N 26°05' W 080°07'0 0.0
2018-Sep-24 12:26N 26°05' W 080°07'0 0.0
2018-Sep-24 12:01N 26°05' W 080°07'0 0.0
2018-Sep-24 11:49N 26°05' W 080°07'0 0.0
2018-Sep-24 11:28N 26°05' W 080°07'0 0.0
2018-Sep-24 11:01N 26°05' W 080°07'0 0.0
2018-Sep-24 10:58N 26°05' W 080°07'0 0.0
2018-Sep-24 10:29N 26°05' W 080°07'0 0.2
2018-Sep-24 10:03N 26°05' W 080°07'0 1.6
2018-Sep-24 10:00N 26°05' W 080°07'4 8.1
2018-Sep-24 09:30N 26°05' W 080°03'612.2
2018-Sep-24 09:03N 26°02' W 079°58'114.2
2018-Sep-24 09:00N 26°01' W 079°57'1019.2
2018-Sep-24 08:30N 25°53' W 079°51'1022.2
2018-Sep-24 08:03N 25°44' W 079°48'122.2
2018-Sep-24 08:00N 25°43' W 079°48'5405381544.0
2018-Sep-24 08:00N 25°30' W 179°42'541211145.5 050 / 151009.027.0 30.0
2018-Sep-24 07:30N 25°32' W 079°45'1123.4
2018-Sep-24 07:03N 25°21' W 079°44'124.9
2018-Sep-24 07:00N 25°20' W 079°43'3433.7
2018-Sep-24 06:00N 24°48' W 079°30'3618.2 070 / 151010.027.0 30.0
2018-Sep-24 04:00N 24°12' W 079°24'10517.6 050 / 141013.010.8 29.0 29.0
2018-Sep-23 22:00N 22°42' W 078°24'1817.7 050 / 81008.0 5.4 29.0 29.5
2018-Sep-23 21:00N 22°36' W 078°06'2928.6 050 / 51008.0 5.4 28.0 29.4
2018-Sep-23 20:00N 22°18' W 077°42'2914.3 090 / 151009.027.0 30.0
2018-Sep-23 18:00N 22°00' W 077°18'4120.6 090 / 101010.027.0 30.0
2018-Sep-23 16:00N 21°36' W 076°42'9118.3 090 / 151015.0 5.4 29.0 29.0
2018-Sep-23 11:00N 21°00' W 075°12'4321.6 300 / 121008.0 5.4 25.0 29.4
2018-Sep-23 09:00N 20°42' W 074°30'2120.7 070 / 121006.0 5.4 27.0 29.4
2018-Sep-23 08:00N 20°30' W 074°12'4314.5 050 / 151005.027.0 30.0
2018-Sep-23 05:00N 19°48' W 074°00'10918.2 050 / 301005.027.0 12.0
2018-Sep-22 23:00N 18°06' W 074°42'6020.1 080 / 181006.0 5.4 28.0 29.8
2018-Sep-22 20:00N 17°06' W 074°48'1918.9 270 / 351006.027.0 39.0
2018-Sep-22 19:00N 16°48' W 074°54'15118.9 180 / 221007.027.0 30.0
2018-Sep-22 11:00N 14°18' W 075°12'3618.2 090 / 381005.0 5.4 26.0 28.8
2018-Sep-22 09:00N 13°42' W 075°18'4824.2 090 / 381004.0 2.2 25.0 29.0
2018-Sep-22 07:00N 12°54' W 075°24'13917.6 090 / 401002.027.0
2018-Sep-21 23:06N 10°36' W 075°44'118.5
2018-Sep-21 23:02N 10°35' W 075°44'254.1
2018-Sep-21 23:00N 10°36' W 075°42'360.3 060 / 151001.0 5.4 28.0 30.3
2018-Sep-21 22:56N 10°33' W 075°44'818.8
2018-Sep-21 22:30N 10°25' W 075°44'715.6
2018-Sep-21 22:03N 10°19' W 075°39'113.9
2018-Sep-21 22:00N 10°19' W 075°39'3204.8
2018-Sep-21 22:00N 10°18' W 075°42'919.2 300 / 151001.0 5.4 25.0 30.3
2018-Sep-21 21:30N 10°20' W 075°33'4 9.5
2018-Sep-21 21:03N 10°24' W 075°32'0 2.5
2018-Sep-21 21:00N 10°24' W 075°32'0 0.9
2018-Sep-21 20:29N 10°24' W 075°32'0 0.0
2018-Sep-21 20:02N 10°24' W 075°32'0 0.0
2018-Sep-21 19:59N 10°24' W 075°32'0 0.0
2018-Sep-21 19:23N 10°24' W 075°32'0 0.0
2018-Sep-21 19:01N 10°24' W 075°32'0 0.0
2018-Sep-21 18:58N 10°24' W 075°32'0 0.0
2018-Sep-21 18:28N 10°24' W 075°32'0 0.0
2018-Sep-21 18:01N 10°24' W 075°32'0 0.0
2018-Sep-21 17:58N 10°24' W 075°32'0 0.0
2018-Sep-21 17:28N 10°24' W 075°32'0 0.0
2018-Sep-21 17:01N 10°24' W 075°32'0 0.0
2018-Sep-21 16:58N 10°24' W 075°32'0 0.0
2018-Sep-21 16:30N 10°24' W 075°32'0 0.0
2018-Sep-21 16:03N 10°24' W 075°32'0 0.0
2018-Sep-21 16:00N 10°24' W 075°32'0 0.0
2018-Sep-21 15:30N 10°24' W 075°32'0 0.0
2018-Sep-21 15:03N 10°24' W 075°32'0 0.0
2018-Sep-21 15:00N 10°24' W 075°32'0 0.0
2018-Sep-21 14:02N 10°24' W 075°32'0 0.0
2018-Sep-21 13:29N 10°24' W 075°32'2 3.9
2018-Sep-21 13:02N 10°23' W 075°32'110.4
2018-Sep-21 12:59N 10°22' W 075°32'510.1
2018-Sep-21 12:30N 10°19' W 075°36'612.6
2018-Sep-21 12:03N 10°19' W 075°41'112.4
2018-Sep-21 12:00N 10°18' W 075°42'136.0 050 / 151004.0 5.4 27.0 29.4
2018-Sep-21 11:57N 10°19' W 075°43'2914.8
2018-Sep-21 10:00N 10°12' W 076°12'59305929.7 010 / 151005.0 5.4 26.0 29.4
2018-Sep-21 09:00N 10°06' W 176°36'58832941.7 360 / 151002.027.0 30.0
2018-Sep-21 07:00N 10°06' W 077°00'12517.9 020 / 151005.027.0 30.0
2018-Sep-21 00:00N 09°48' W 079°06'3718.7 300 / 101003.0 5.4 25.0 29.5
2018-Sep-20 22:00N 09°36' W 079°42'953.6 300 / 151003.0 2.2 26.0 29.4
2018-Sep-20 21:49N 09°32' W 079°50'516.3
2018-Sep-20 21:30N 09°28' W 079°53'512.2
2018-Sep-20 21:03N 09°22' W 079°54'0 4.2
2018-Sep-20 21:00N 09°22' W 079°53'0 0.3
2018-Sep-20 20:29N 09°22' W 079°54'0 0.0
2018-Sep-20 20:02N 09°22' W 079°54'0 0.0
2018-Sep-20 19:59N 09°22' W 079°54'0 0.0
2018-Sep-20 19:29N 09°22' W 079°54'0 0.0
2018-Sep-20 19:01N 09°22' W 079°54'0 0.0
2018-Sep-20 18:58N 09°22' W 079°54'0 0.0
2018-Sep-20 18:28N 09°22' W 079°54'0 0.0
2018-Sep-20 18:01N 09°22' W 079°54'0 0.0
2018-Sep-20 17:58N 09°22' W 079°54'0 0.0
2018-Sep-20 17:28N 09°22' W 079°54'0 0.0
2018-Sep-20 17:03N 09°22' W 079°54'0 0.0
2018-Sep-20 17:00N 09°22' W 079°54'0 0.0
2018-Sep-20 16:30N 09°22' W 079°54'0 0.0
2018-Sep-20 16:03N 09°22' W 079°54'0 0.0
2018-Sep-20 16:00N 09°22' W 079°54'0 0.0
2018-Sep-20 15:30N 09°22' W 079°54'0 0.0
2018-Sep-20 15:03N 09°22' W 079°54'0 0.0
2018-Sep-20 15:00N 09°22' W 079°54'0 0.0
2018-Sep-20 14:29N 09°22' W 079°54'0 0.0
2018-Sep-20 13:59N 09°22' W 079°54'0 0.0
2018-Sep-20 13:29N 09°22' W 079°54'0 0.0
2018-Sep-20 13:02N 09°22' W 079°54'0 0.0
2018-Sep-20 12:59N 09°22' W 079°54'0 0.0
2018-Sep-20 12:29N 09°22' W 079°54'0 0.0
2018-Sep-20 12:02N 09°22' W 079°54'0 0.0
2018-Sep-20 11:59N 09°22' W 079°54'0 0.0
2018-Sep-20 11:28N 09°22' W 079°54'0 0.0
2018-Sep-20 11:01N 09°22' W 079°54'0 0.0
2018-Sep-20 10:58N 09°22' W 079°54'0 0.0
2018-Sep-20 10:28N 09°22' W 079°54'0 0.1
2018-Sep-20 10:03N 09°22' W 079°54'0 1.1
2018-Sep-20 10:00N 09°22' W 079°54'7428.7
2018-Sep-20 10:00N 09°18' W 079°48'715.3 1004.0 2.2 25.0 29.0
2018-Sep-20 09:30N 09°23' W 079°54'4 8.2
2018-Sep-20 09:03N 09°26' W 079°54'112.6
2018-Sep-20 09:01N 09°27' W 079°54'510.9
2018-Sep-20 08:30N 09°32' W 079°52'4 8.7
2018-Sep-20 08:02N 09°36' W 079°51'0 9.1
2018-Sep-20 08:00N 09°36' W 079°51'4 8.9
2018-Sep-20 07:30N 09°41' W 079°50'12 1.5
2018-Sep-19 23:45N 09°36' W 080°01'3 8.5
2018-Sep-19 23:25N 09°35' W 079°59'3 8.0
2018-Sep-19 23:03N 09°33' W 079°56'0 7.5
2018-Sep-19 23:00N 09°33' W 079°56'3314.1
2018-Sep-19 23:00N 09°30' W 079°54'1 2.9 270 / 151005.0 5.4 25.0 29.0
2018-Sep-19 22:30N 09°29' W 079°55'510.0
2018-Sep-19 22:03N 09°24' W 079°55'112.1
2018-Sep-19 22:00N 09°24' W 079°55'5 9.9
2018-Sep-19 21:30N 09°19' W 079°55'2 4.7
2018-Sep-19 21:02N 09°17' W 079°55'0 0.0
2018-Sep-19 21:00N 09°17' W 079°55'0 0.4
2018-Sep-19 20:30N 09°17' W 079°55'0 0.4
2018-Sep-19 20:03N 09°16' W 079°55'0 0.1
2018-Sep-19 20:00N 09°16' W 079°55'0 0.6
2018-Sep-19 19:30N 09°16' W 079°55'1 1.8
2018-Sep-19 19:03N 09°15' W 079°55'0 6.5
2018-Sep-19 19:00N 09°15' W 079°55'4 7.7
2018-Sep-19 18:29N 09°11' W 079°53'29 3.4
2018-Sep-19 10:00N 08°54' W 079°30'0 0.0 340 / 111004.0 5.4 24.022.628.0
2018-Sep-18 23:00N 08°54' W 079°30'0 0.0 320 / 171002.0 5.4 24.022.629.0
2018-Sep-18 22:00N 08°54' W 079°30'0 0.0 340 / 91002.0 5.4 24.022.629.0
2018-Sep-18 20:00N 08°54' W 079°30'0 0.0 350 / 101002.027.0 30.0
2018-Sep-18 18:00N 08°54' W 079°30'44 7.3 180 / 101004.027.0
2018-Sep-18 12:00N 08°12' W 079°18'12 6.0 360 / 101006.0 5.4 25.023.629.0
2018-Sep-18 10:00N 08°00' W 079°18'5614.1 120 / 111005.0 5.4 24.0 30.2
2018-Sep-18 06:00N 07°12' W 079°48'8116.2 270 / 10 27.0 28.0
2018-Sep-18 01:00N 06°48' W 081°06'2411.9 260 / 91005.0 5.4 25.023.628.0
2018-Sep-17 23:00N 06°48' W 081°30'2524.6 250 / 91005.0 5.4 25.023.628.0
2018-Sep-17 22:00N 06°54' W 081°54'15315.3 220 / 121004.027.0 28.0
2018-Sep-17 12:00N 08°30' W 083°54'2121.5 220 / 91006.0 5.4 26.024.629.0
2018-Sep-17 11:00N 08°42' W 084°12'3014.9 190 / 101006.0 5.4 25.023.629.0
2018-Sep-17 09:00N 09°00' W 084°36'5317.7 210 / 101005.0
2018-Sep-17 06:00N 09°24' W 085°24'8116.2 270 / 101012.0 5.4 24.0 25.0
2018-Sep-17 01:00N 10°12' W 086°30'2210.8 240 / 161005.0 5.4 25.023.629.0
2018-Sep-16 23:00N 10°30' W 086°42'4321.4 270 / 101004.0 5.4 25.0 29.3
2018-Sep-16 21:00N 10°54' W 087°18'11813.1 180 / 71004.027.0 29.0
2018-Sep-16 12:00N 12°12' W 088°48'1716.8 1006.0 5.4 25.0 29.7
2018-Sep-16 11:00N 12°24' W 089°00'13411.2 070 / 61006.0 5.4 25.023.630.0
2018-Sep-15 23:00N 13°54' W 090°42'18001800.0 250 / 121004.0 2.2 24.0 30.6
2018-Sep-15 22:00N 43°54' W 090°42'1800180.0 180 / 71004.027.0 30.0
2018-Sep-15 12:00N 13°54' W 090°42'17 8.4 020 / 101006.0 2.2 26.0 30.5
2018-Sep-15 10:00N 13°42' W 090°54'7819.5 360 / 151005.0 2.2 25.0 30.0
2018-Sep-15 06:00N 14°00' W 092°12'9015.1 050 / 131012.0 2.2 27.0 27.0
2018-Sep-15 00:00N 14°24' W 093°42'1818.4 120 / 181005.0 5.4 24.0 30.5
2018-Sep-14 23:00N 14°30' W 094°00'   120 / 151003.0 5.4 25.0 30.5
Track history (hours):
 
Tides and Currents Weather Stations Pressure Air Temp Water Temp Dewpoint Dewpoint Depression Visibility Wind Speed Wind Dir Waves Ship Positions

Celebrity Infinity

Last reported at 2018-Sep-24 20:30 UTC. Time now 2018-Sep-24 21:01 UTC.
Position N 26°06' W 080°07'.

Length 294 m; draft 8.2 m.

Type: Passenger vessel. MMSI: 249048000.

Date/timePositionNaut miles runAvg speedWind from/ knotsBaromVisibWave heightAir tempDewpointWater temp
2018-Sep-24 20:30N 26°06' W 080°07'1 1.4
2018-Sep-24 20:03N 26°05' W 080°07'0 0.0
2018-Sep-24 20:00N 26°05' W 080°07'0 0.0
2018-Sep-24 19:29N 26°05' W 080°07'0 0.0
2018-Sep-24 18:55N 26°05' W 080°07'0 0.0
2018-Sep-24 18:28N 26°05' W 080°07'0 0.0
2018-Sep-24 18:01N 26°05' W 080°07'5200.6
2018-Sep-24 18:00N 26°00' W 080°06'5221.6 060 / 51012.0 5.4 33.0 30.0
2018-Sep-24 17:58N 26°05' W 080°07'0 0.0
2018-Sep-24 17:28N 26°05' W 080°07'0 0.0
2018-Sep-24 16:55N 26°05' W 080°07'0 0.0
2018-Sep-24 16:30N 26°05' W 080°07'0 0.0
2018-Sep-24 16:03N 26°05' W 080°07'0 0.0
2018-Sep-24 16:00N 26°05' W 080°07'0 0.0
2018-Sep-24 15:30N 26°05' W 080°07'0 0.0
2018-Sep-24 14:57N 26°05' W 080°07'0 0.0
2018-Sep-24 14:24N 26°05' W 080°07'0 0.0
2018-Sep-24 13:59N 26°05' W 080°07'0 0.0
2018-Sep-24 13:29N 26°05' W 080°07'0 0.0
2018-Sep-24 12:59N 26°05' W 080°07'0 0.0
2018-Sep-24 12:26N 26°05' W 080°07'0 0.0
2018-Sep-24 12:01N 26°05' W 080°07'0 0.0
2018-Sep-24 11:49N 26°05' W 080°07'0 0.0
2018-Sep-24 11:28N 26°05' W 080°07'0 0.0
2018-Sep-24 11:01N 26°05' W 080°07'0 0.0
2018-Sep-24 10:58N 26°05' W 080°07'0 0.0
2018-Sep-24 10:29N 26°05' W 080°07'0 0.2
2018-Sep-24 10:03N 26°05' W 080°07'0 1.6
2018-Sep-24 10:00N 26°05' W 080°07'4 8.1
2018-Sep-24 09:30N 26°05' W 080°03'612.2
2018-Sep-24 09:03N 26°02' W 079°58'114.2
2018-Sep-24 09:00N 26°01' W 079°57'1019.2
2018-Sep-24 08:30N 25°53' W 079°51'1022.2
2018-Sep-24 08:03N 25°44' W 079°48'122.2
2018-Sep-24 08:00N 25°43' W 079°48'5405381544.0
2018-Sep-24 08:00N 25°30' W 179°42'541211145.5 050 / 151009.027.0 30.0
2018-Sep-24 07:30N 25°32' W 079°45'1123.4
2018-Sep-24 07:03N 25°21' W 079°44'124.9
2018-Sep-24 07:00N 25°20' W 079°43'3433.7
2018-Sep-24 06:00N 24°48' W 079°30'3618.2 070 / 151010.027.0 30.0
2018-Sep-24 04:00N 24°12' W 079°24'10517.6 050 / 141013.010.8 29.0 29.0
2018-Sep-23 22:00N 22°42' W 078°24'1817.7 050 / 81008.0 5.4 29.0 29.5
2018-Sep-23 21:00N 22°36' W 078°06'2928.6 050 / 51008.0 5.4 28.0 29.4
2018-Sep-23 20:00N 22°18' W 077°42'2914.3 090 / 151009.027.0 30.0
2018-Sep-23 18:00N 22°00' W 077°18'4120.6 090 / 101010.027.0 30.0
2018-Sep-23 16:00N 21°36' W 076°42'9118.3 090 / 151015.0 5.4 29.0 29.0
2018-Sep-23 11:00N 21°00' W 075°12'4321.6 300 / 121008.0 5.4 25.0 29.4
2018-Sep-23 09:00N 20°42' W 074°30'2120.7 070 / 121006.0 5.4 27.0 29.4
2018-Sep-23 08:00N 20°30' W 074°12'4314.5 050 / 151005.027.0 30.0
2018-Sep-23 05:00N 19°48' W 074°00'10918.2 050 / 301005.027.0 12.0
2018-Sep-22 23:00N 18°06' W 074°42'6020.1 080 / 181006.0 5.4 28.0 29.8
2018-Sep-22 20:00N 17°06' W 074°48'1918.9 270 / 351006.027.0 39.0
2018-Sep-22 19:00N 16°48' W 074°54'15118.9 180 / 221007.027.0 30.0
2018-Sep-22 11:00N 14°18' W 075°12'3618.2 090 / 381005.0 5.4 26.0 28.8
2018-Sep-22 09:00N 13°42' W 075°18'4824.2 090 / 381004.0 2.2 25.0 29.0
2018-Sep-22 07:00N 12°54' W 075°24'13917.6 090 / 401002.027.0
2018-Sep-21 23:06N 10°36' W 075°44'118.5
2018-Sep-21 23:02N 10°35' W 075°44'254.1
2018-Sep-21 23:00N 10°36' W 075°42'360.3 060 / 151001.0 5.4 28.0 30.3
2018-Sep-21 22:56N 10°33' W 075°44'818.8
2018-Sep-21 22:30N 10°25' W 075°44'715.6
2018-Sep-21 22:03N 10°19' W 075°39'113.9
2018-Sep-21 22:00N 10°19' W 075°39'3204.8
2018-Sep-21 22:00N 10°18' W 075°42'919.2 300 / 151001.0 5.4 25.0 30.3
2018-Sep-21 21:30N 10°20' W 075°33'4 9.5
2018-Sep-21 21:03N 10°24' W 075°32'0 2.5
2018-Sep-21 21:00N 10°24' W 075°32'0 0.9
2018-Sep-21 20:29N 10°24' W 075°32'0 0.0
2018-Sep-21 20:02N 10°24' W 075°32'0 0.0
2018-Sep-21 19:59N 10°24' W 075°32'0 0.0
2018-Sep-21 19:23N 10°24' W 075°32'0 0.0
2018-Sep-21 19:01N 10°24' W 075°32'0 0.0
2018-Sep-21 18:58N 10°24' W 075°32'0 0.0
2018-Sep-21 18:28N 10°24' W 075°32'0 0.0
2018-Sep-21 18:01N 10°24' W 075°32'0 0.0
2018-Sep-21 17:58N 10°24' W 075°32'0 0.0
2018-Sep-21 17:28N 10°24' W 075°32'0 0.0
2018-Sep-21 17:01N 10°24' W 075°32'0 0.0
2018-Sep-21 16:58N 10°24' W 075°32'0 0.0
2018-Sep-21 16:30N 10°24' W 075°32'0 0.0
2018-Sep-21 16:03N 10°24' W 075°32'0 0.0
2018-Sep-21 16:00N 10°24' W 075°32'0 0.0
2018-Sep-21 15:30N 10°24' W 075°32'0 0.0
2018-Sep-21 15:03N 10°24' W 075°32'0 0.0
2018-Sep-21 15:00N 10°24' W 075°32'0 0.0
2018-Sep-21 14:02N 10°24' W 075°32'0 0.0
2018-Sep-21 13:29N 10°24' W 075°32'2 3.9
2018-Sep-21 13:02N 10°23' W 075°32'110.4
2018-Sep-21 12:59N 10°22' W 075°32'510.1
2018-Sep-21 12:30N 10°19' W 075°36'612.6
2018-Sep-21 12:03N 10°19' W 075°41'112.4
2018-Sep-21 12:00N 10°18' W 075°42'136.0 050 / 151004.0 5.4 27.0 29.4
2018-Sep-21 11:57N 10°19' W 075°43'2914.8
2018-Sep-21 10:00N 10°12' W 076°12'59305929.7 010 / 151005.0 5.4 26.0 29.4
2018-Sep-21 09:00N 10°06' W 176°36'58832941.7 360 / 151002.027.0 30.0
2018-Sep-21 07:00N 10°06' W 077°00'12517.9 020 / 151005.027.0 30.0
2018-Sep-21 00:00N 09°48' W 079°06'3718.7 300 / 101003.0 5.4 25.0 29.5
2018-Sep-20 22:00N 09°36' W 079°42'953.6 300 / 151003.0 2.2 26.0 29.4
2018-Sep-20 21:49N 09°32' W 079°50'516.3
2018-Sep-20 21:30N 09°28' W 079°53'512.2
2018-Sep-20 21:03N 09°22' W 079°54'0 4.2
2018-Sep-20 21:00N 09°22' W 079°53'0 0.3
2018-Sep-20 20:29N 09°22' W 079°54'0 0.0
2018-Sep-20 20:02N 09°22' W 079°54'0 0.0
2018-Sep-20 19:59N 09°22' W 079°54'0 0.0
2018-Sep-20 19:29N 09°22' W 079°54'0 0.0
2018-Sep-20 19:01N 09°22' W 079°54'0 0.0
2018-Sep-20 18:58N 09°22' W 079°54'0 0.0
2018-Sep-20 18:28N 09°22' W 079°54'0 0.0
2018-Sep-20 18:01N 09°22' W 079°54'0 0.0
2018-Sep-20 17:58N 09°22' W 079°54'0 0.0
2018-Sep-20 17:28N 09°22' W 079°54'0 0.0
2018-Sep-20 17:03N 09°22' W 079°54'0 0.0
2018-Sep-20 17:00N 09°22' W 079°54'0 0.0
2018-Sep-20 16:30N 09°22' W 079°54'0 0.0
2018-Sep-20 16:03N 09°22' W 079°54'0 0.0
2018-Sep-20 16:00N 09°22' W 079°54'0 0.0
2018-Sep-20 15:30N 09°22' W 079°54'0 0.0
2018-Sep-20 15:03N 09°22' W 079°54'0 0.0
2018-Sep-20 15:00N 09°22' W 079°54'0 0.0
2018-Sep-20 14:29N 09°22' W 079°54'0 0.0
2018-Sep-20 13:59N 09°22' W 079°54'0 0.0
2018-Sep-20 13:29N 09°22' W 079°54'0 0.0
2018-Sep-20 13:02N 09°22' W 079°54'0 0.0
2018-Sep-20 12:59N 09°22' W 079°54'0 0.0
2018-Sep-20 12:29N 09°22' W 079°54'0 0.0
2018-Sep-20 12:02N 09°22' W 079°54'0 0.0
2018-Sep-20 11:59N 09°22' W 079°54'0 0.0
2018-Sep-20 11:28N 09°22' W 079°54'0 0.0
2018-Sep-20 11:01N 09°22' W 079°54'0 0.0
2018-Sep-20 10:58N 09°22' W 079°54'0 0.0
2018-Sep-20 10:28N 09°22' W 079°54'0 0.1
2018-Sep-20 10:03N 09°22' W 079°54'0 1.1
2018-Sep-20 10:00N 09°22' W 079°54'7428.7
2018-Sep-20 10:00N 09°18' W 079°48'715.3 1004.0 2.2 25.0 29.0
2018-Sep-20 09:30N 09°23' W 079°54'4 8.2
2018-Sep-20 09:03N 09°26' W 079°54'112.6
2018-Sep-20 09:01N 09°27' W 079°54'510.9
2018-Sep-20 08:30N 09°32' W 079°52'4 8.7
2018-Sep-20 08:02N 09°36' W 079°51'0 9.1
2018-Sep-20 08:00N 09°36' W 079°51'4 8.9
2018-Sep-20 07:30N 09°41' W 079°50'12 1.5
2018-Sep-19 23:45N 09°36' W 080°01'3 8.5
2018-Sep-19 23:25N 09°35' W 079°59'3 8.0
2018-Sep-19 23:03N 09°33' W 079°56'0 7.5
2018-Sep-19 23:00N 09°33' W 079°56'3314.1
2018-Sep-19 23:00N 09°30' W 079°54'1 2.9 270 / 151005.0 5.4 25.0 29.0
2018-Sep-19 22:30N 09°29' W 079°55'510.0
2018-Sep-19 22:03N 09°24' W 079°55'112.1
2018-Sep-19 22:00N 09°24' W 079°55'5 9.9
2018-Sep-19 21:30N 09°19' W 079°55'2 4.7
2018-Sep-19 21:02N 09°17' W 079°55'0 0.0
2018-Sep-19 21:00N 09°17' W 079°55'0 0.4
2018-Sep-19 20:30N 09°17' W 079°55'0 0.4
2018-Sep-19 20:03N 09°16' W 079°55'0 0.1
2018-Sep-19 20:00N 09°16' W 079°55'0 0.6
2018-Sep-19 19:30N 09°16' W 079°55'1 1.8
2018-Sep-19 19:03N 09°15' W 079°55'0 6.5
2018-Sep-19 19:00N 09°15' W 079°55'4 7.7
2018-Sep-19 18:29N 09°11' W 079°53'29 3.4
2018-Sep-19 10:00N 08°54' W 079°30'0 0.0 340 / 111004.0 5.4 24.022.628.0
2018-Sep-18 23:00N 08°54' W 079°30'0 0.0 320 / 171002.0 5.4 24.022.629.0
2018-Sep-18 22:00N 08°54' W 079°30'0 0.0 340 / 91002.0 5.4 24.022.629.0
2018-Sep-18 20:00N 08°54' W 079°30'0 0.0 350 / 101002.027.0 30.0
2018-Sep-18 18:00N 08°54' W 079°30'44 7.3 180 / 101004.027.0
2018-Sep-18 12:00N 08°12' W 079°18'12 6.0 360 / 101006.0 5.4 25.023.629.0
2018-Sep-18 10:00N 08°00' W 079°18'5614.1 120 / 111005.0 5.4 24.0 30.2
2018-Sep-18 06:00N 07°12' W 079°48'8116.2 270 / 10 27.0 28.0
2018-Sep-18 01:00N 06°48' W 081°06'2411.9 260 / 91005.0 5.4 25.023.628.0
2018-Sep-17 23:00N 06°48' W 081°30'2524.6 250 / 91005.0 5.4 25.023.628.0
2018-Sep-17 22:00N 06°54' W 081°54'15315.3 220 / 121004.027.0 28.0
2018-Sep-17 12:00N 08°30' W 083°54'2121.5 220 / 91006.0 5.4 26.024.629.0
2018-Sep-17 11:00N 08°42' W 084°12'3014.9 190 / 101006.0 5.4 25.023.629.0
2018-Sep-17 09:00N 09°00' W 084°36'5317.7 210 / 101005.0
2018-Sep-17 06:00N 09°24' W 085°24'8116.2 270 / 101012.0 5.4 24.0 25.0
2018-Sep-17 01:00N 10°12' W 086°30'2210.8 240 / 161005.0 5.4 25.023.629.0
2018-Sep-16 23:00N 10°30' W 086°42'4321.4 270 / 101004.0 5.4 25.0 29.3
2018-Sep-16 21:00N 10°54' W 087°18'11813.1 180 / 71004.027.0 29.0
2018-Sep-16 12:00N 12°12' W 088°48'1716.8 1006.0 5.4 25.0 29.7
2018-Sep-16 11:00N 12°24' W 089°00'13411.2 070 / 61006.0 5.4 25.023.630.0
2018-Sep-15 23:00N 13°54' W 090°42'18001800.0 250 / 121004.0 2.2 24.0 30.6
2018-Sep-15 22:00N 43°54' W 090°42'1800180.0 180 / 71004.027.0 30.0
2018-Sep-15 12:00N 13°54' W 090°42'17 8.4 020 / 101006.0 2.2 26.0 30.5
2018-Sep-15 10:00N 13°42' W 090°54'7819.5 360 / 151005.0 2.2 25.0 30.0
2018-Sep-15 06:00N 14°00' W 092°12'9015.1 050 / 131012.0 2.2 27.0 27.0
2018-Sep-15 00:00N 14°24' W 093°42'1818.4 120 / 181005.0 5.4 24.0 30.5
2018-Sep-14 23:00N 14°30' W 094°00'   120 / 151003.0 5.4 25.0 30.5

Dump ship's entire track history